Strona główna
METAR-TAF:

METAR-TAF

Lotnisko :

Shelbyville Municipal Airport

Shelbyville, Indiana, Stany Zjednoczone

Szerokość geograficzna: 39-35-08N, Długość geograficzna: 085-48-00W, wysokość: 245 m

Aktualna obserwacja pogody

Raport powstał 1 godzina i 5 minut temu, godzina 06:53 UTC
Wiatr 7 kt od zachodnio-północny zachód
Temperatura -9°C
Wilgotność 79%
Ciśnienie 1031 hPa
Widzialność: 16.1 km
Zachmurzenie całkowite na wysokości 1700 ft

METAR: KGEZ 200653Z AUTO 30007KT 10SM OVC017 M09/M12 A3046 RMK AO2 SLP328 T10891122

czas: 02:58 (07:58 UTC)


TAF: brakujący

Obserwacja i prognoza pogody dla ponad 4000 lotnisk (raport METAR i TAF).

Dostępne stacje oznaczono żółtymi i czerwonymi punktami na mapie.

Najedź kursorem aby zobaczyć nazwę stacji.

Kliknij aby zobaczyć obserwacje i prognozy pogody.

Aby zmienić mapę: kliknij na zielony przycisk z czarnym krzyżykiem, aby powiększyć; na zielony przycisk z myślnikiem, aby pomniejszyć; na zielone strzałki, aby przejść do map sąsiednich.


METAR-TAF: